Time;durP1;ratioP1;P1;durP2;ratioP2;P2;SDS_P1;SDS_P2;PMS_P1;PMS_P2;Temp;Humidity;BMP_temperature;BMP_pressure;BME280_temperature;BME280_humidity;BME280_pressure;Samples;Min_cycle;Max_cycle;Signal;HPM_P1;HPM_P2
2023/07/08 00:00:15;;;;;;;13.35;10.45;;;;;;;;;;5049792;28;20518;-80
2023/07/08 00:02:41;;;;;;;14.15;11.00;;;;;;;;;;5045642;28;20036;-80
2023/07/08 00:05:08;;;;;;;14.38;10.52;;;;;;;;;;5042142;28;20037;-80
2023/07/08 00:07:34;;;;;;;13.32;10.30;;;;;;;;;;5055747;28;20093;-80
2023/07/08 00:09:59;;;;;;;13.10;10.70;;;;;;;;;;5056791;28;20484;-80
2023/07/08 00:12:25;;;;;;;15.65;12.07;;;;;;;;;;5056966;28;20110;-80
2023/07/08 00:14:50;;;;;;;14.90;11.38;;;;;;;;;;5056615;28;20056;-80
2023/07/08 00:17:15;;;;;;;19.13;11.45;;;;;;;;;;5056874;28;20428;-80
2023/07/08 00:19:41;;;;;;;15.00;11.82;;;;;;;;;;5056537;28;20028;-80
2023/07/08 00:22:12;;;;;;;14.57;10.48;;;;;;;;;;5056919;28;20045;-80
2023/07/08 00:24:37;;;;;;;13.20;11.35;;;;;;;;;;5022409;28;20154;-80
2023/07/08 00:27:03;;;;;;;15.48;10.73;;;;;;;;;;5039077;28;20028;-80
2023/07/08 00:29:28;;;;;;;14.05;10.90;;;;;;;;;;5038763;28;20115;-81
2023/07/08 00:31:54;;;;;;;15.70;10.88;;;;;;;;;;5038925;28;20033;-81
2023/07/08 00:34:19;;;;;;;13.13;10.82;;;;;;;;;;5056375;28;20087;-81
2023/07/08 00:36:44;;;;;;;13.90;11.05;;;;;;;;;;5038580;28;20082;-81
2023/07/08 00:39:14;;;;;;;12.98;10.82;;;;;;;;;;5055161;28;20032;-80
2023/07/08 00:41:40;;;;;;;14.38;11.32;;;;;;;;;;5056185;28;20029;-81
2023/07/08 00:44:08;;;;;;;14.88;11.32;;;;;;;;;;5038184;28;20144;-80
2023/07/08 00:46:41;;;;;;;15.70;10.90;;;;;;;;;;5038986;28;20028;-80
2023/07/08 00:49:06;;;;;;;13.95;10.73;;;;;;;;;;5038802;28;20036;-81
2023/07/08 00:51:31;;;;;;;12.57;10.05;;;;;;;;;;5038467;28;20063;-81
2023/07/08 00:53:57;;;;;;;15.93;10.02;;;;;;;;;;5038434;28;20448;-81
2023/07/08 00:56:29;;;;;;;14.38;10.05;;;;;;;;;;5038388;28;20029;-81
2023/07/08 00:59:09;;;;;;;14.77;9.75;;;;;;;;;;5022130;28;20067;-80
2023/07/08 01:01:35;;;;;;;;;;;;;;;;;;5038669;28;20032;-81
2023/07/08 01:04:11;;;;;;;15.43;10.55;;;;;;;;;;5055885;28;19912;-81
2023/07/08 01:06:39;;;;;;;17.25;10.40;;;;;;;;;;5021886;28;20037;-81
2023/07/08 01:09:05;;;;;;;16.75;10.05;;;;;;;;;;5038469;28;20444;-80
2023/07/08 01:11:31;;;;;;;18.15;10.10;;;;;;;;;;5021545;28;20041;-80
2023/07/08 01:13:58;;;;;;;15.38;10.05;;;;;;;;;;5037518;28;20052;-81
2023/07/08 01:16:23;;;;;;;13.60;9.80;;;;;;;;;;5021690;28;20033;-81
2023/07/08 01:18:53;;;;;;;11.43;9.88;;;;;;;;;;5037763;28;20459;-80
2023/07/08 01:21:38;;;;;;;13.20;9.57;;;;;;;;;;5039108;28;20044;-79
2023/07/08 01:24:05;;;;;;;12.27;9.55;;;;;;;;;;5038014;28;20021;-79
2023/07/08 01:26:31;;;;;;;14.35;9.55;;;;;;;;;;5039528;28;20029;-80
2023/07/08 01:28:57;;;;;;;12.80;9.40;;;;;;;;;;5038068;28;20037;-80
2023/07/08 01:31:23;;;;;;;12.32;9.05;;;;;;;;;;5021138;28;20032;-79
2023/07/08 01:33:48;;;;;;;11.48;9.25;;;;;;;;;;5021031;28;20036;-79
2023/07/08 01:36:14;;;;;;;10.90;8.77;;;;;;;;;;5021116;28;20044;-79
2023/07/08 01:38:39;;;;;;;11.30;8.60;;;;;;;;;;5020805;28;20103;-79
2023/07/08 01:41:05;;;;;;;13.23;8.57;;;;;;;;;;5056289;28;20029;-80
2023/07/08 01:43:31;;;;;;;11.65;7.82;;;;;;;;;;5039242;28;20070;-78
2023/07/08 01:45:58;;;;;;;15.00;8.98;;;;;;;;;;5057784;28;20048;-81
2023/07/08 01:48:23;;;;;;;12.10;9.35;;;;;;;;;;5037509;28;20471;-81
2023/07/08 01:50:57;;;;;;;11.85;8.85;;;;;;;;;;5036800;28;20082;-80
2023/07/08 01:53:37;;;;;;;13.13;8.57;;;;;;;;;;5038182;28;20033;-81
2023/07/08 01:56:03;;;;;;;11.27;8.82;;;;;;;;;;5021810;28;20044;-79
2023/07/08 01:58:29;;;;;;;12.10;9.13;;;;;;;;;;5020521;28;20037;-80
2023/07/08 02:00:55;;;;;;;12.80;9.20;;;;;;;;;;5020518;28;20052;-79
2023/07/08 02:03:20;;;;;;;12.32;8.73;;;;;;;;;;5038263;28;20090;-79
2023/07/08 02:05:46;;;;;;;15.13;8.90;;;;;;;;;;5039320;28;20045;-79
2023/07/08 02:08:11;;;;;;;15.35;9.23;;;;;;;;;;5020836;28;20028;-79
2023/07/08 02:10:38;;;;;;;13.30;8.38;;;;;;;;;;5020313;28;20025;-79
2023/07/08 02:13:03;;;;;;;16.90;8.07;;;;;;;;;;5053603;28;20055;-81
2023/07/08 02:15:29;;;;;;;13.35;8.07;;;;;;;;;;5004115;28;20049;-79
2023/07/08 02:17:54;;;;;;;12.75;8.40;;;;;;;;;;5020432;28;20541;-79
2023/07/08 02:20:20;;;;;;;10.15;8.02;;;;;;;;;;5055117;28;20029;-79
2023/07/08 02:22:45;;;;;;;12.98;8.45;;;;;;;;;;5058553;28;20115;-79
2023/07/08 02:25:11;;;;;;;10.25;7.80;;;;;;;;;;5056150;28;20025;-79
2023/07/08 02:27:37;;;;;;;13.45;7.80;;;;;;;;;;5040055;28;20369;-80
2023/07/08 02:30:02;;;;;;;13.23;7.97;;;;;;;;;;5037239;28;20021;-80
2023/07/08 02:32:28;;;;;;;12.85;8.13;;;;;;;;;;5020082;28;20021;-80
2023/07/08 02:34:53;;;;;;;13.45;7.95;;;;;;;;;;5020098;28;20452;-80
2023/07/08 02:37:19;;;;;;;10.82;7.68;;;;;;;;;;5036599;28;20060;-80
2023/07/08 02:39:44;;;;;;;9.48;7.13;;;;;;;;;;5021002;28;20021;-80
2023/07/08 02:42:10;;;;;;;11.40;7.45;;;;;;;;;;5031136;28;20033;-79
2023/07/08 02:44:35;;;;;;;10.52;7.68;;;;;;;;;;5045339;28;20049;-80
2023/07/08 02:47:00;;;;;;;10.63;7.72;;;;;;;;;;5058692;28;20064;-79
2023/07/08 02:49:26;;;;;;;11.25;7.70;;;;;;;;;;5059924;28;20025;-79
2023/07/08 02:51:51;;;;;;;10.52;7.30;;;;;;;;;;5061255;28;20025;-80
2023/07/08 02:54:17;;;;;;;11.52;7.78;;;;;;;;;;5027002;28;20029;-79
2023/07/08 02:56:43;;;;;;;12.32;7.40;;;;;;;;;;5045109;28;20029;-80
2023/07/08 02:59:08;;;;;;;9.90;6.90;;;;;;;;;;5065153;28;20029;-79
2023/07/08 03:01:41;;;;;;;10.63;6.90;;;;;;;;;;5049849;28;20052;-78
2023/07/08 03:04:08;;;;;;;10.68;7.20;;;;;;;;;;5066014;28;20456;-78
2023/07/08 03:06:34;;;;;;;15.60;7.68;;;;;;;;;;5067973;28;20395;-79
2023/07/08 03:09:00;;;;;;;10.35;6.70;;;;;;;;;;5065317;28;20086;-80
2023/07/08 03:11:25;;;;;;;10.45;6.82;;;;;;;;;;5044130;28;20084;-80
2023/07/08 03:13:51;;;;;;;9.75;6.72;;;;;;;;;;5014159;28;20128;-80
2023/07/08 03:16:16;;;;;;;14.02;7.10;;;;;;;;;;5045467;28;20025;-79
2023/07/08 03:18:46;;;;;;;12.60;6.88;;;;;;;;;;5061979;28;20025;-81
2023/07/08 03:21:12;;;;;;;13.30;6.75;;;;;;;;;;5028420;28;20116;-79
2023/07/08 03:23:38;;;;;;;9.77;6.55;;;;;;;;;;5048572;28;20028;-80
2023/07/08 03:26:03;;;;;;;10.68;6.22;;;;;;;;;;5049109;28;20036;-78
2023/07/08 03:28:29;;;;;;;8.73;6.93;;;;;;;;;;5046002;28;20075;-80
2023/07/08 03:30:54;;;;;;;7.85;6.00;;;;;;;;;;5065330;28;20063;-80
2023/07/08 03:33:20;;;;;;;9.75;6.35;;;;;;;;;;5045201;28;20461;-80
2023/07/08 03:35:45;;;;;;;8.60;6.88;;;;;;;;;;5031357;28;20021;-80
2023/07/08 03:38:11;;;;;;;9.57;6.20;;;;;;;;;;5048540;28;20029;-80
2023/07/08 03:40:36;;;;;;;11.10;6.20;;;;;;;;;;5069627;28;20032;-81
2023/07/08 03:43:02;;;;;;;12.77;6.03;;;;;;;;;;5050073;28;20375;-80
2023/07/08 03:45:27;;;;;;;14.57;5.90;;;;;;;;;;5055179;28;20360;-79
2023/07/08 03:47:53;;;;;;;9.80;6.70;;;;;;;;;;5050948;28;20032;-81
2023/07/08 03:50:23;;;;;;;8.77;5.90;;;;;;;;;;5068309;28;20029;-81
2023/07/08 03:52:49;;;;;;;10.77;5.88;;;;;;;;;;5069852;28;20094;-80
2023/07/08 03:55:15;;;;;;;7.65;5.80;;;;;;;;;;5067206;28;20040;-80
2023/07/08 03:57:40;;;;;;;8.25;6.28;;;;;;;;;;5054027;28;20029;-81
2023/07/08 04:00:09;;;;;;;11.85;6.55;;;;;;;;;;5053903;28;20033;-79
2023/07/08 04:02:35;;;;;;;9.10;6.18;;;;;;;;;;5069026;28;20377;-80
2023/07/08 04:05:01;;;;;;;10.50;5.70;;;;;;;;;;5053779;28;20052;-80
2023/07/08 04:07:27;;;;;;;9.15;5.57;;;;;;;;;;5047078;28;20013;-81
2023/07/08 04:09:52;;;;;;;7.40;5.68;;;;;;;;;;5050870;28;20052;-80
2023/07/08 04:12:18;;;;;;;11.18;5.65;;;;;;;;;;5051624;28;20051;-77
2023/07/08 04:14:43;;;;;;;8.23;5.45;;;;;;;;;;5055913;28;20025;-79
2023/07/08 04:17:09;;;;;;;11.82;5.95;;;;;;;;;;5053848;28;20041;-78
2023/07/08 04:19:35;;;;;;;7.50;5.22;;;;;;;;;;5039837;28;20025;-78
2023/07/08 04:22:01;;;;;;;8.27;5.63;;;;;;;;;;5037316;28;20037;-80
2023/07/08 04:24:26;;;;;;;8.07;5.28;;;;;;;;;;5027073;28;20029;-77
2023/07/08 04:26:52;;;;;;;8.93;5.88;;;;;;;;;;5065191;28;20036;-81
2023/07/08 04:29:19;;;;;;;9.23;5.40;;;;;;;;;;5040924;28;20333;-81
2023/07/08 04:31:45;;;;;;;9.23;5.38;;;;;;;;;;5039253;28;20037;-81
2023/07/08 04:34:10;;;;;;;6.55;5.07;;;;;;;;;;5056661;28;20051;-80
2023/07/08 04:36:36;;;;;;;9.65;5.30;;;;;;;;;;5038428;28;20524;-79
2023/07/08 04:39:05;;;;;;;10.40;5.53;;;;;;;;;;5039293;28;20495;-79
2023/07/08 04:41:31;;;;;;;9.50;5.10;;;;;;;;;;5022323;28;20033;-80
2023/07/08 04:43:57;;;;;;;8.88;5.38;;;;;;;;;;5038663;28;20060;-81
2023/07/08 04:46:38;;;;;;;10.65;5.20;;;;;;;;;;5057590;28;20444;-81
2023/07/08 04:49:05;;;;;;;12.32;5.60;;;;;;;;;;5022548;28;20096;-80
2023/07/08 04:51:31;;;;;;;8.55;5.20;;;;;;;;;;5038438;28;20108;-80
2023/07/08 04:53:56;;;;;;;7.45;5.10;;;;;;;;;;5038465;28;20471;-81
2023/07/08 04:56:23;;;;;;;9.02;5.25;;;;;;;;;;5055859;28;20060;-81
2023/07/08 04:58:49;;;;;;;6.95;5.13;;;;;;;;;;5038375;28;20032;-81
2023/07/08 05:01:14;;;;;;;8.23;4.63;;;;;;;;;;5056146;28;20395;-80
2023/07/08 05:03:39;;;;;;;5.90;4.90;;;;;;;;;;5055833;28;20091;-80
2023/07/08 05:06:05;;;;;;;8.07;4.32;;;;;;;;;;5056592;28;20024;-80
2023/07/08 05:08:30;;;;;;;5.63;3.90;;;;;;;;;;5039417;28;20048;-80
2023/07/08 05:10:56;;;;;;;5.20;3.83;;;;;;;;;;5021637;28;20361;-79
2023/07/08 05:13:22;;;;;;;4.43;3.70;;;;;;;;;;5037951;28;20108;-80
2023/07/08 05:15:48;;;;;;;6.65;3.60;;;;;;;;;;5055816;28;20067;-80
2023/07/08 05:18:14;;;;;;;7.75;3.97;;;;;;;;;;5038341;28;20123;-80
2023/07/08 05:20:40;;;;;;;4.20;3.50;;;;;;;;;;5021088;28;20090;-80
2023/07/08 05:23:05;;;;;;;5.88;3.72;;;;;;;;;;5037586;28;20072;-80
2023/07/08 05:25:32;;;;;;;9.18;3.42;;;;;;;;;;5037619;28;20025;-79
2023/07/08 05:27:57;;;;;;;6.05;3.47;;;;;;;;;;5056819;28;20029;-79
2023/07/08 05:30:22;;;;;;;5.53;3.63;;;;;;;;;;5021071;28;20361;-80
2023/07/08 05:32:48;;;;;;;5.00;3.47;;;;;;;;;;5037457;28;20037;-79
2023/07/08 05:35:13;;;;;;;7.75;3.80;;;;;;;;;;5053704;28;20373;-78
2023/07/08 05:37:39;;;;;;;4.95;3.60;;;;;;;;;;5037566;28;20025;-80
2023/07/08 05:40:07;;;;;;;6.03;3.35;;;;;;;;;;5037213;28;20032;-80
2023/07/08 05:42:33;;;;;;;4.85;3.22;;;;;;;;;;5021220;28;20351;-81
2023/07/08 05:44:58;;;;;;;4.07;3.10;;;;;;;;;;5054864;28;20033;-80
2023/07/08 05:47:24;;;;;;;5.47;3.33;;;;;;;;;;5004927;28;20037;-80
2023/07/08 05:49:49;;;;;;;3.47;2.75;;;;;;;;;;5054920;28;20124;-80
2023/07/08 05:52:15;;;;;;;6.05;3.15;;;;;;;;;;5054863;28;20119;-80
2023/07/08 05:54:40;;;;;;;4.55;3.20;;;;;;;;;;5021102;28;20032;-82
2023/07/08 05:57:07;;;;;;;3.95;2.95;;;;;;;;;;5036964;28;20395;-79
2023/07/08 05:59:33;;;;;;;5.03;3.20;;;;;;;;;;5019909;28;20033;-80
2023/07/08 06:01:59;;;;;;;6.03;2.92;;;;;;;;;;5036976;28;20033;-81
2023/07/08 06:04:24;;;;;;;8.20;3.13;;;;;;;;;;5037632;28;20025;-80
2023/07/08 06:06:49;;;;;;;4.60;2.60;;;;;;;;;;5055383;28;20028;-80
2023/07/08 06:09:15;;;;;;;4.85;3.10;;;;;;;;;;5037527;28;20036;-80
2023/07/08 06:11:40;;;;;;;6.07;3.28;;;;;;;;;;5022383;28;20123;-81
2023/07/08 06:14:06;;;;;;;3.30;2.90;;;;;;;;;;5056343;28;20392;-80
2023/07/08 06:16:31;;;;;;;8.35;2.85;;;;;;;;;;5021591;28;20356;-80
2023/07/08 06:18:57;;;;;;;5.93;2.65;;;;;;;;;;5021218;28;20355;-80
2023/07/08 06:21:23;;;;;;;5.20;2.85;;;;;;;;;;5043377;28;20068;-79
2023/07/08 06:23:49;;;;;;;4.75;2.80;;;;;;;;;;5050159;28;20071;-79
2023/07/08 06:26:14;;;;;;;10.80;2.72;;;;;;;;;;5026290;28;20021;-80
2023/07/08 06:28:40;;;;;;;3.40;2.83;;;;;;;;;;5061287;28;20032;-82
2023/07/08 06:31:05;;;;;;;4.57;3.00;;;;;;;;;;5043880;28;20021;-82
2023/07/08 06:33:31;;;;;;;6.47;2.60;;;;;;;;;;5054729;28;20025;-81
2023/07/08 06:35:56;;;;;;;5.60;2.55;;;;;;;;;;5036614;28;20363;-81
2023/07/08 06:38:21;;;;;;;4.68;2.78;;;;;;;;;;5054435;28;20025;-78
2023/07/08 06:40:47;;;;;;;2.83;2.55;;;;;;;;;;5054277;28;20032;-78
2023/07/08 06:43:12;;;;;;;3.25;2.85;;;;;;;;;;5035939;28;20060;-78
2023/07/08 06:45:38;;;;;;;4.55;2.75;;;;;;;;;;5036009;28;20039;-80
2023/07/08 06:48:03;;;;;;;5.47;2.67;;;;;;;;;;5036327;28;20021;-80
2023/07/08 06:50:29;;;;;;;6.38;2.50;;;;;;;;;;5054455;28;20029;-82
2023/07/08 06:52:54;;;;;;;4.28;2.80;;;;;;;;;;5036565;28;20029;-81
2023/07/08 06:55:20;;;;;;;3.58;2.65;;;;;;;;;;5054199;28;20408;-80
2023/07/08 06:57:46;;;;;;;2.85;2.63;;;;;;;;;;5036517;28;20025;-81
2023/07/08 07:00:11;;;;;;;4.78;2.63;;;;;;;;;;5053676;28;20025;-81
2023/07/08 07:02:37;;;;;;;6.93;2.80;;;;;;;;;;5036167;28;20460;-82
2023/07/08 07:05:03;;;;;;;3.00;2.42;;;;;;;;;;5052534;28;20025;-81
2023/07/08 07:07:29;;;;;;;3.38;2.65;;;;;;;;;;5019414;28;20071;-81
2023/07/08 07:09:54;;;;;;;3.95;2.78;;;;;;;;;;5003830;28;20029;-81
2023/07/08 07:12:20;;;;;;;6.53;2.70;;;;;;;;;;5057907;28;20356;-79
2023/07/08 07:14:46;;;;;;;4.00;2.88;;;;;;;;;;5039729;28;20096;-80
2023/07/08 07:17:11;;;;;;;4.47;2.80;;;;;;;;;;5007467;28;20441;-78
2023/07/08 07:19:37;;;;;;;3.72;3.03;;;;;;;;;;5057791;28;20024;-78
2023/07/08 07:22:02;;;;;;;5.22;2.72;;;;;;;;;;5040150;28;20020;-78
2023/07/08 07:24:28;;;;;;;3.13;2.83;;;;;;;;;;5057616;28;20363;-79
2023/07/08 07:26:53;;;;;;;3.75;2.58;;;;;;;;;;5040085;28;20032;-79
2023/07/08 07:29:21;;;;;;;5.60;2.90;;;;;;;;;;5039874;28;20391;-79
2023/07/08 07:31:47;;;;;;;3.25;2.90;;;;;;;;;;5040251;28;20029;-78
2023/07/08 07:34:14;;;;;;;3.10;2.80;;;;;;;;;;5007127;28;20029;-79
2023/07/08 07:36:39;;;;;;;2.83;2.40;;;;;;;;;;5023398;28;20057;-79
2023/07/08 07:39:05;;;;;;;3.22;2.92;;;;;;;;;;5057337;28;20114;-78
2023/07/08 07:41:30;;;;;;;4.65;3.30;;;;;;;;;;5057452;28;20044;-79
2023/07/08 07:43:55;;;;;;;3.75;3.00;;;;;;;;;;5038942;28;20140;-79
2023/07/08 07:46:21;;;;;;;6.30;3.00;;;;;;;;;;5057249;28;20029;-79
2023/07/08 07:48:46;;;;;;;4.47;2.80;;;;;;;;;;5057376;28;20024;-81
2023/07/08 07:51:12;;;;;;;5.15;3.00;;;;;;;;;;5039817;28;20024;-81
2023/07/08 07:53:38;;;;;;;3.38;3.08;;;;;;;;;;5023156;28;20048;-78
2023/07/08 07:56:03;;;;;;;5.03;2.80;;;;;;;;;;5006948;28;20464;-79
2023/07/08 07:58:29;;;;;;;5.00;3.05;;;;;;;;;;5039256;28;20443;-79
2023/07/08 08:00:54;;;;;;;3.80;2.60;;;;;;;;;;5056020;28;20139;-81
2023/07/08 08:03:20;;;;;;;5.28;2.78;;;;;;;;;;5023155;28;20029;-80
2023/07/08 08:05:46;;;;;;;4.50;2.85;;;;;;;;;;5039237;28;20025;-80
2023/07/08 08:08:11;;;;;;;4.88;2.92;;;;;;;;;;5056909;28;20025;-80
2023/07/08 08:10:37;;;;;;;3.17;2.92;;;;;;;;;;5023007;28;20375;-79
2023/07/08 08:13:02;;;;;;;2.80;2.60;;;;;;;;;;5022529;28;20095;-79
2023/07/08 08:15:28;;;;;;;2.97;2.60;;;;;;;;;;5022518;28;20345;-80
2023/07/08 08:17:53;;;;;;;6.18;3.08;;;;;;;;;;5006373;28;20036;-80
2023/07/08 08:20:20;;;;;;;4.60;2.88;;;;;;;;;;5038800;28;20039;-81
2023/07/08 08:22:45;;;;;;;3.75;2.70;;;;;;;;;;5038085;28;20488;-81
2023/07/08 08:25:11;;;;;;;3.33;3.00;;;;;;;;;;5038994;28;20110;-80
2023/07/08 08:27:36;;;;;;;5.28;3.13;;;;;;;;;;5056448;28;20455;-80
2023/07/08 08:30:04;;;;;;;3.10;2.80;;;;;;;;;;5056775;28;20116;-81
2023/07/08 08:32:29;;;;;;;3.23;2.90;;;;;;;;;;5039209;28;20550;-81
2023/07/08 08:34:55;;;;;;;5.65;2.65;;;;;;;;;;5038917;28;20063;-81
2023/07/08 08:37:20;;;;;;;6.10;2.78;;;;;;;;;;5022353;28;20025;-82
2023/07/08 08:39:46;;;;;;;3.97;2.83;;;;;;;;;;5056545;28;20033;-81
2023/07/08 08:42:33;;;;;;;3.65;3.00;;;;;;;;;;5056242;28;20028;-81
2023/07/08 08:44:58;;;;;;;3.50;2.77;;;;;;;;;;5022669;28;20053;-80
2023/07/08 08:47:38;;;;;;;4.90;2.80;;;;;;;;;;5022030;28;20035;-81
2023/07/08 08:50:15;;;;;;;6.93;2.53;;;;;;;;;;5038685;28;20082;-81
2023/07/08 08:52:40;;;;;;;5.75;2.70;;;;;;;;;;5039369;28;20033;-80
2023/07/08 08:55:13;;;;;;;3.45;2.58;;;;;;;;;;5039256;28;20090;-79
2023/07/08 08:58:01;;;;;;;3.10;2.80;;;;;;;;;;5021615;28;20024;-80
2023/07/08 09:00:40;;;;;;;2.90;2.70;;;;;;;;;;5039805;28;20452;-80
2023/07/08 09:03:12;;;;;;;2.92;2.70;;;;;;;;;;5022463;28;20098;-81
2023/07/08 09:05:37;;;;;;;3.13;2.80;;;;;;;;;;5038389;28;20029;-80
2023/07/08 09:08:08;;;;;;;2.70;2.50;;;;;;;;;;5038169;28;20021;-80
2023/07/08 09:10:55;;;;;;;2.67;2.47;;;;;;;;;;5038055;28;20352;-80
2023/07/08 09:13:32;;;;;;;3.95;2.70;;;;;;;;;;5038741;28;20346;-80
2023/07/08 09:16:20;;;;;;;3.50;2.77;;;;;;;;;;5021972;28;20117;-79
2023/07/08 09:19:17;;;;;;;3.73;3.17;;;;;;;;;;5023115;28;20123;-79
2023/07/08 09:22:04;;;;;;;5.95;3.20;;;;;;;;;;5037565;28;20448;-79
2023/07/08 09:24:47;;;;;;;4.40;2.88;;;;;;;;;;5040175;28;20029;-80
2023/07/08 09:27:12;;;;;;;3.30;2.90;;;;;;;;;;5021778;28;20036;-80
2023/07/08 09:29:37;;;;;;;3.38;2.90;;;;;;;;;;5037666;28;20025;-80
2023/07/08 09:32:16;;;;;;;3.13;2.42;;;;;;;;;;5037753;28;20040;-80
2023/07/08 09:34:44;;;;;;;2.72;2.53;;;;;;;;;;5054314;28;20036;-79
2023/07/08 09:37:28;;;;;;;2.72;2.50;;;;;;;;;;5054590;28;20037;-81
2023/07/08 09:39:54;;;;;;;2.83;2.47;;;;;;;;;;5038158;28;20025;-80
2023/07/08 09:42:21;;;;;;;6.00;2.63;;;;;;;;;;5037549;28;20128;-81
2023/07/08 09:44:47;;;;;;;3.15;2.63;;;;;;;;;;5021107;28;20042;-81
2023/07/08 09:47:34;;;;;;;3.60;2.45;;;;;;;;;;5021035;28;20025;-81
2023/07/08 09:50:00;;;;;;;4.60;2.58;;;;;;;;;;5020966;28;20081;-80
2023/07/08 09:52:26;;;;;;;10.00;2.60;;;;;;;;;;5037053;28;20032;-80
2023/07/08 09:54:51;;;;;;;4.10;2.50;;;;;;;;;;5037595;28;20440;-80
2023/07/08 09:57:28;;;;;;;3.58;2.63;;;;;;;;;;5037194;28;20024;-80
2023/07/08 10:00:01;;;;;;;4.07;2.55;;;;;;;;;;5037977;28;20120;-80
2023/07/08 10:02:45;;;;;;;3.72;2.47;;;;;;;;;;5021420;28;20040;-80
2023/07/08 10:05:14;;;;;;;5.50;3.17;;;;;;;;;;5020927;28;20037;-79
2023/07/08 10:07:40;;;;;;;4.03;3.10;;;;;;;;;;5037282;28;20056;-79
2023/07/08 10:10:14;;;;;;;3.75;3.08;;;;;;;;;;5020664;28;20439;-82
2023/07/08 10:12:39;;;;;;;6.82;3.83;;;;;;;;;;5022702;28;20106;-80
2023/07/08 10:15:17;;;;;;;3.90;3.60;;;;;;;;;;5008929;28;20017;-81
2023/07/08 10:17:42;;;;;;;5.88;3.72;;;;;;;;;;5037855;28;20042;-80
2023/07/08 10:20:12;;;;;;;4.53;3.28;;;;;;;;;;5037412;28;20458;-81
2023/07/08 10:23:05;;;;;;;4.28;3.50;;;;;;;;;;5051206;28;20025;-79
2023/07/08 10:25:41;;;;;;;7.40;3.58;;;;;;;;;;5048569;28;20036;-79
2023/07/08 10:28:34;;;;;;;4.82;3.70;;;;;;;;;;5051752;28;20035;-79
2023/07/08 10:31:22;;;;;;;4.35;3.95;;;;;;;;;;5047121;28;20756;-81
2023/07/08 10:34:01;;;;;;;4.10;3.40;;;;;;;;;;5036583;28;20384;-81
2023/07/08 10:36:49;;;;;;;3.67;3.38;;;;;;;;;;5036680;28;20029;-80
2023/07/08 10:39:33;;;;;;;;;;;;;;;;;;5020222;28;20059;-80
2023/07/08 10:42:11;;;;;;;3.45;3.15;;;;;;;;;;5069768;28;20316;-80
2023/07/08 10:45:01;;;;;;;3.63;3.10;;;;;;;;;;5053949;28;20044;-81
2023/07/08 10:47:41;;;;;;;4.20;2.75;;;;;;;;;;5054375;28;20175;-81
2023/07/08 10:50:31;;;;;;;5.00;2.90;;;;;;;;;;5036100;28;20086;-80
2023/07/08 10:52:57;;;;;;;4.63;3.10;;;;;;;;;;5053690;28;20044;-80
2023/07/08 10:55:41;;;;;;;4.63;3.00;;;;;;;;;;5054168;28;20025;-81
2023/07/08 10:58:39;;;;;;;4.25;3.10;;;;;;;;;;5038709;28;20075;-81
2023/07/08 11:01:13;;;;;;;5.55;2.67;;;;;;;;;;5017249;28;20045;-80
2023/07/08 11:03:57;;;;;;;7.35;3.20;;;;;;;;;;5054965;28;20376;-79
2023/07/08 11:06:38;;;;;;;2.70;2.50;;;;;;;;;;5036232;28;20043;-80
2023/07/08 11:09:05;;;;;;;7.50;2.60;;;;;;;;;;5037349;28;20124;-79
2023/07/08 11:11:30;;;;;;;4.38;2.80;;;;;;;;;;5036186;28;20029;-81
2023/07/08 11:14:10;;;;;;;3.38;2.60;;;;;;;;;;5053931;28;20369;-79
2023/07/08 11:16:43;;;;;;;4.97;2.60;;;;;;;;;;5036266;28;20376;-80
2023/07/08 11:19:19;;;;;;;3.35;2.80;;;;;;;;;;5036872;28;20043;-79
2023/07/08 11:21:50;;;;;;;2.78;2.45;;;;;;;;;;5037654;28;20056;-81
2023/07/08 11:24:26;;;;;;;2.53;2.33;;;;;;;;;;5036513;28;20048;-80
2023/07/08 11:27:00;;;;;;;6.03;2.70;;;;;;;;;;5036291;28;20033;-79
2023/07/08 11:29:37;;;;;;;3.30;2.88;;;;;;;;;;5019831;28;20439;-80
2023/07/08 11:32:04;;;;;;;4.53;3.10;;;;;;;;;;5036254;28;20029;-81
2023/07/08 11:34:29;;;;;;;3.00;2.78;;;;;;;;;;5035966;28;20466;-80
2023/07/08 11:36:55;;;;;;;6.00;2.80;;;;;;;;;;5036484;28;20125;-80
2023/07/08 11:39:44;;;;;;;5.70;2.67;;;;;;;;;;5036183;28;20125;-80
2023/07/08 11:42:21;;;;;;;6.45;2.67;;;;;;;;;;5020590;28;20116;-81
2023/07/08 11:44:51;;;;;;;5.05;2.42;;;;;;;;;;5035953;28;20048;-81
2023/07/08 11:47:38;;;;;;;4.28;2.47;;;;;;;;;;5019803;28;20025;-80
2023/07/08 11:50:21;;;;;;;4.50;2.80;;;;;;;;;;5036073;28;20048;-79
2023/07/08 11:52:53;;;;;;;2.95;2.67;;;;;;;;;;5021445;28;20140;-79
2023/07/08 11:55:22;;;;;;;4.50;3.13;;;;;;;;;;5036069;28;20056;-79
2023/07/08 11:57:48;;;;;;;6.03;3.10;;;;;;;;;;5037117;28;20036;-80
2023/07/08 12:00:19;;;;;;;7.82;3.20;;;;;;;;;;5022725;28;20120;-79
2023/07/08 12:02:58;;;;;;;3.67;2.92;;;;;;;;;;5023720;28;20024;-81
2023/07/08 12:05:38;;;;;;;3.45;2.67;;;;;;;;;;5039154;28;20414;-80
2023/07/08 12:08:12;;;;;;;8.95;2.83;;;;;;;;;;5039876;28;20479;-79
2023/07/08 12:10:39;;;;;;;3.00;2.70;;;;;;;;;;5039435;28;20086;-79
2023/07/08 12:13:15;;;;;;;7.05;2.88;;;;;;;;;;5039618;28;20037;-80
2023/07/08 12:15:40;;;;;;;4.95;3.20;;;;;;;;;;5055595;28;20028;-79
2023/07/08 12:18:09;;;;;;;4.95;3.20;;;;;;;;;;5039132;28;20039;-78
2023/07/08 12:20:36;;;;;;;4.15;3.22;;;;;;;;;;5038905;28;20059;-80
2023/07/08 12:23:02;;;;;;;3.72;3.40;;;;;;;;;;5039511;28;20036;-79
2023/07/08 12:25:34;;;;;;;12.23;2.90;;;;;;;;;;5038860;28;20021;-80
2023/07/08 12:28:00;;;;;;;5.78;3.70;;;;;;;;;;5039433;28;20025;-80
2023/07/08 12:30:25;;;;;;;3.97;3.22;;;;;;;;;;5022328;28;20029;-79
2023/07/08 12:32:51;;;;;;;8.38;3.63;;;;;;;;;;5022390;28;20482;-79
2023/07/08 12:35:23;;;;;;;5.30;3.20;;;;;;;;;;5038668;28;20116;-79
2023/07/08 12:37:51;;;;;;;4.25;3.45;;;;;;;;;;5039146;28;20032;-79
2023/07/08 12:40:16;;;;;;;3.72;3.40;;;;;;;;;;5038782;28;20032;-79
2023/07/08 12:42:41;;;;;;;5.65;3.67;;;;;;;;;;5056228;28;20025;-79
2023/07/08 12:45:15;;;;;;;4.60;3.17;;;;;;;;;;5056334;28;20052;-81
2023/07/08 12:47:40;;;;;;;4.68;3.38;;;;;;;;;;5038663;28;20036;-80
2023/07/08 12:50:08;;;;;;;7.25;3.47;;;;;;;;;;5021403;28;20033;-81
2023/07/08 12:52:34;;;;;;;7.53;3.33;;;;;;;;;;5021974;28;20048;-80
2023/07/08 12:54:59;;;;;;;7.10;3.17;;;;;;;;;;5056016;28;20029;-80
2023/07/08 12:57:25;;;;;;;6.20;3.65;;;;;;;;;;5056186;28;20027;-80
2023/07/08 12:59:50;;;;;;;3.60;3.30;;;;;;;;;;5021740;28;20384;-79
2023/07/08 13:02:18;;;;;;;7.53;3.60;;;;;;;;;;5056033;28;20510;-81
2023/07/08 13:04:45;;;;;;;5.93;3.65;;;;;;;;;;5021412;28;20520;-80
2023/07/08 13:07:43;;;;;;;4.50;3.38;;;;;;;;;;5038371;28;20052;-80
2023/07/08 13:10:16;;;;;;;4.53;3.40;;;;;;;;;;4984100;28;20039;-81
2023/07/08 13:12:42;;;;;;;6.18;3.58;;;;;;;;;;5038551;28;20033;-80
2023/07/08 13:15:13;;;;;;;6.13;3.50;;;;;;;;;;5021691;28;20025;-81
2023/07/08 13:17:40;;;;;;;6.32;3.38;;;;;;;;;;5038123;28;20029;-79
2023/07/08 13:20:10;;;;;;;4.82;3.22;;;;;;;;;;5038535;28;20028;-79
2023/07/08 13:22:36;;;;;;;4.07;3.22;;;;;;;;;;5038105;28;20059;-79
2023/07/08 13:25:02;;;;;;;4.00;3.00;;;;;;;;;;5004970;28;20061;-80
2023/07/08 13:27:28;;;;;;;3.50;3.20;;;;;;;;;;5037652;28;20572;-79
2023/07/08 13:29:54;;;;;;;5.88;3.38;;;;;;;;;;5021102;28;20128;-80
2023/07/08 13:32:20;;;;;;;3.42;3.13;;;;;;;;;;5053920;28;20052;-80
2023/07/08 13:34:48;;;;;;;9.00;3.30;;;;;;;;;;5055250;28;20033;-79
2023/07/08 13:37:14;;;;;;;4.03;3.30;;;;;;;;;;5037765;28;20031;-80
2023/07/08 13:39:43;;;;;;;6.32;3.30;;;;;;;;;;5054669;28;20422;-80
2023/07/08 13:42:08;;;;;;;;;;;;;;;;;;5037985;28;20467;-80
2023/07/08 13:44:34;;;;;;;6.68;2.90;;;;;;;;;;5020992;28;20024;-79
2023/07/08 13:47:00;;;;;;;6.43;3.20;;;;;;;;;;5020607;28;20029;-79
2023/07/08 13:49:39;;;;;;;5.15;3.35;;;;;;;;;;5037095;28;20062;-79
2023/07/08 13:52:05;;;;;;;;;;;;;;;;;;5055438;28;20121;-79
2023/07/08 13:54:38;;;;;;;3.83;3.20;;;;;;;;;;5055110;28;20355;-78
2023/07/08 13:57:12;;;;;;;5.90;3.40;;;;;;;;;;5021152;28;20033;-79
2023/07/08 13:59:37;;;;;;;3.88;3.47;;;;;;;;;;5037416;28;20025;-81
2023/07/08 14:02:15;;;;;;;5.90;3.40;;;;;;;;;;5020675;28;20028;-80
2023/07/08 14:04:41;;;;;;;6.63;3.28;;;;;;;;;;5038773;28;20025;-79
2023/07/08 14:07:23;;;;;;;7.05;3.30;;;;;;;;;;5036773;28;20036;-80
2023/07/08 14:09:49;;;;;;;6.70;3.20;;;;;;;;;;5038608;28;20106;-80
2023/07/08 14:12:14;;;;;;;15.75;3.40;;;;;;;;;;5037105;28;20074;-80
2023/07/08 14:14:40;;;;;;;4.47;3.75;;;;;;;;;;5054549;28;20464;-80
2023/07/08 14:17:07;;;;;;;5.20;3.60;;;;;;;;;;5020244;28;20017;-80
2023/07/08 14:19:33;;;;;;;8.65;3.83;;;;;;;;;;5020499;28;20051;-79
2023/07/08 14:22:01;;;;;;;8.30;3.47;;;;;;;;;;5036392;28;20456;-80
2023/07/08 14:24:27;;;;;;;6.70;3.80;;;;;;;;;;5037038;28;20360;-80
2023/07/08 14:26:52;;;;;;;10.52;3.70;;;;;;;;;;5054865;28;20029;-80
2023/07/08 14:29:18;;;;;;;6.18;3.47;;;;;;;;;;5020392;28;20470;-80
2023/07/08 14:31:43;;;;;;;7.57;3.58;;;;;;;;;;5019804;28;20075;-79
2023/07/08 14:34:13;;;;;;;6.50;3.47;;;;;;;;;;5036572;28;20507;-80
2023/07/08 14:36:38;;;;;;;7.07;3.92;;;;;;;;;;5037087;28;20372;-79
2023/07/08 14:39:22;;;;;;;5.70;3.90;;;;;;;;;;5036842;28;20029;-80
2023/07/08 14:41:48;;;;;;;4.93;3.88;;;;;;;;;;5054248;28;20040;-80
2023/07/08 14:44:33;;;;;;;8.63;3.88;;;;;;;;;;5017054;28;20060;-79
2023/07/08 14:46:59;;;;;;;6.57;3.58;;;;;;;;;;5033459;28;20079;-80
2023/07/08 14:49:24;;;;;;;4.03;3.40;;;;;;;;;;5033191;28;20029;-81